sensor_id;sensor_type;location;lat;lon;timestamp;P1;durP1;ratioP1;P2;durP2;ratioP2
63005;SDS011;53704;52.532;6.426;2023-05-10T00:00:31;13.70;;;12.48;;
63005;SDS011;53704;52.532;6.426;2023-05-10T00:02:56;14.90;;;13.70;;
63005;SDS011;53704;52.532;6.426;2023-05-10T00:05:22;18.02;;;14.13;;
63005;SDS011;53704;52.532;6.426;2023-05-10T00:07:47;15.70;;;13.63;;
63005;SDS011;53704;52.532;6.426;2023-05-10T00:10:19;14.40;;;13.10;;
63005;SDS011;53704;52.532;6.426;2023-05-10T00:12:44;16.33;;;14.45;;
63005;SDS011;53704;52.532;6.426;2023-05-10T00:15:10;14.45;;;13.25;;
63005;SDS011;53704;52.532;6.426;2023-05-10T00:17:35;16.27;;;14.55;;
63005;SDS011;53704;52.532;6.426;2023-05-10T00:20:01;15.98;;;14.60;;
63005;SDS011;53704;52.532;6.426;2023-05-10T00:22:26;15.27;;;13.90;;
63005;SDS011;53704;52.532;6.426;2023-05-10T00:24:52;16.05;;;14.45;;
63005;SDS011;53704;52.532;6.426;2023-05-10T00:27:17;16.33;;;14.70;;
63005;SDS011;53704;52.532;6.426;2023-05-10T00:29:42;16.52;;;15.02;;
63005;SDS011;53704;52.532;6.426;2023-05-10T00:32:08;17.33;;;15.45;;
63005;SDS011;53704;52.532;6.426;2023-05-10T00:34:33;16.42;;;14.73;;
63005;SDS011;53704;52.532;6.426;2023-05-10T00:36:59;17.13;;;15.60;;
63005;SDS011;53704;52.532;6.426;2023-05-10T00:39:24;22.30;;;14.13;;
63005;SDS011;53704;52.532;6.426;2023-05-10T00:41:51;16.90;;;15.23;;
63005;SDS011;53704;52.532;6.426;2023-05-10T00:44:17;19.60;;;16.42;;
63005;SDS011;53704;52.532;6.426;2023-05-10T00:46:43;17.33;;;15.07;;
63005;SDS011;53704;52.532;6.426;2023-05-10T00:49:10;18.13;;;16.20;;
63005;SDS011;53704;52.532;6.426;2023-05-10T00:51:36;17.48;;;15.77;;
63005;SDS011;53704;52.532;6.426;2023-05-10T00:56:46;21.70;;;16.87;;
63005;SDS011;53704;52.532;6.426;2023-05-10T00:59:16;28.23;;;17.23;;
63005;SDS011;53704;52.532;6.426;2023-05-10T01:01:43;26.85;;;17.10;;
63005;SDS011;53704;52.532;6.426;2023-05-10T01:04:10;25.02;;;17.45;;
63005;SDS011;53704;52.532;6.426;2023-05-10T01:06:38;21.35;;;17.23;;
63005;SDS011;53704;52.532;6.426;2023-05-10T01:09:03;19.80;;;16.98;;
63005;SDS011;53704;52.532;6.426;2023-05-10T01:11:29;23.77;;;17.00;;
63005;SDS011;53704;52.532;6.426;2023-05-10T01:13:55;18.33;;;16.35;;
63005;SDS011;53704;52.532;6.426;2023-05-10T01:16:22;20.08;;;16.50;;
63005;SDS011;53704;52.532;6.426;2023-05-10T01:18:50;19.20;;;17.17;;
63005;SDS011;53704;52.532;6.426;2023-05-10T01:35:42;22.70;;;17.38;;
63005;SDS011;53704;52.532;6.426;2023-05-10T01:38:18;24.15;;;17.33;;
63005;SDS011;53704;52.532;6.426;2023-05-10T01:41:09;18.95;;;16.95;;
63005;SDS011;53704;52.532;6.426;2023-05-10T01:43:42;25.33;;;17.70;;
63005;SDS011;53704;52.532;6.426;2023-05-10T01:46:14;25.80;;;18.25;;
63005;SDS011;53704;52.532;6.426;2023-05-10T01:48:48;25.00;;;17.80;;
63005;SDS011;53704;52.532;6.426;2023-05-10T01:51:19;21.23;;;17.23;;
63005;SDS011;53704;52.532;6.426;2023-05-10T01:53:51;23.20;;;17.73;;
63005;SDS011;53704;52.532;6.426;2023-05-10T01:56:24;21.90;;;17.98;;
63005;SDS011;53704;52.532;6.426;2023-05-10T01:58:52;22.42;;;18.17;;
63005;SDS011;53704;52.532;6.426;2023-05-10T02:01:20;25.30;;;18.15;;
63005;SDS011;53704;52.532;6.426;2023-05-10T02:03:46;22.27;;;18.20;;
63005;SDS011;53704;52.532;6.426;2023-05-10T02:06:14;24.92;;;17.77;;
63005;SDS011;53704;52.532;6.426;2023-05-10T02:08:43;22.00;;;18.95;;
63005;SDS011;53704;52.532;6.426;2023-05-10T02:11:12;20.13;;;18.02;;
63005;SDS011;53704;52.532;6.426;2023-05-10T02:13:39;20.45;;;17.50;;
63005;SDS011;53704;52.532;6.426;2023-05-10T02:16:05;21.15;;;17.85;;
63005;SDS011;53704;52.532;6.426;2023-05-10T02:18:32;21.20;;;17.55;;
63005;SDS011;53704;52.532;6.426;2023-05-10T02:20:59;24.42;;;18.40;;
63005;SDS011;53704;52.532;6.426;2023-05-10T02:23:26;21.17;;;17.98;;
63005;SDS011;53704;52.532;6.426;2023-05-10T02:25:54;26.90;;;19.92;;
63005;SDS011;53704;52.532;6.426;2023-05-10T02:28:21;32.65;;;20.40;;
63005;SDS011;53704;52.532;6.426;2023-05-10T02:30:48;28.60;;;20.30;;
63005;SDS011;53704;52.532;6.426;2023-05-10T02:33:14;25.58;;;19.98;;
63005;SDS011;53704;52.532;6.426;2023-05-10T02:35:40;30.40;;;20.00;;
63005;SDS011;53704;52.532;6.426;2023-05-10T02:38:06;30.85;;;21.33;;
63005;SDS011;53704;52.532;6.426;2023-05-10T02:40:34;27.88;;;20.08;;
63005;SDS011;53704;52.532;6.426;2023-05-10T02:43:01;34.15;;;22.08;;
63005;SDS011;53704;52.532;6.426;2023-05-10T02:45:30;28.77;;;20.60;;
63005;SDS011;53704;52.532;6.426;2023-05-10T02:47:57;33.30;;;22.25;;
63005;SDS011;53704;52.532;6.426;2023-05-10T02:50:25;32.15;;;22.10;;
63005;SDS011;53704;52.532;6.426;2023-05-10T02:52:54;36.60;;;23.38;;
63005;SDS011;53704;52.532;6.426;2023-05-10T02:55:30;39.50;;;23.40;;
63005;SDS011;53704;52.532;6.426;2023-05-10T02:58:00;29.15;;;21.58;;
63005;SDS011;53704;52.532;6.426;2023-05-10T03:00:26;32.33;;;21.63;;
63005;SDS011;53704;52.532;6.426;2023-05-10T03:02:52;35.70;;;22.90;;
63005;SDS011;53704;52.532;6.426;2023-05-10T03:05:18;28.50;;;21.45;;
63005;SDS011;53704;52.532;6.426;2023-05-10T03:07:44;38.13;;;22.25;;
63005;SDS011;53704;52.532;6.426;2023-05-10T03:10:10;36.85;;;22.88;;
63005;SDS011;53704;52.532;6.426;2023-05-10T03:18:31;35.95;;;22.10;;
63005;SDS011;53704;52.532;6.426;2023-05-10T03:21:02;29.48;;;20.52;;
63005;SDS011;53704;52.532;6.426;2023-05-10T03:24:13;45.33;;;22.52;;
63005;SDS011;53704;52.532;6.426;2023-05-10T03:26:31;31.52;;;20.80;;
63005;SDS011;53704;52.532;6.426;2023-05-10T03:28:58;28.80;;;20.73;;
63005;SDS011;53704;52.532;6.426;2023-05-10T03:31:24;32.88;;;21.40;;
63005;SDS011;53704;52.532;6.426;2023-05-10T03:33:50;32.15;;;21.38;;
63005;SDS011;53704;52.532;6.426;2023-05-10T03:36:17;37.10;;;22.65;;
63005;SDS011;53704;52.532;6.426;2023-05-10T03:38:43;36.50;;;21.77;;
63005;SDS011;53704;52.532;6.426;2023-05-10T03:41:09;40.95;;;23.45;;
63005;SDS011;53704;52.532;6.426;2023-05-10T03:43:34;33.30;;;21.67;;
63005;SDS011;53704;52.532;6.426;2023-05-10T03:46:03;41.33;;;22.38;;
63005;SDS011;53704;52.532;6.426;2023-05-10T03:48:29;35.85;;;21.23;;
63005;SDS011;53704;52.532;6.426;2023-05-10T03:50:56;36.97;;;20.98;;
63005;SDS011;53704;52.532;6.426;2023-05-10T03:53:22;37.88;;;22.17;;
63005;SDS011;53704;52.532;6.426;2023-05-10T03:55:48;33.40;;;21.17;;
63005;SDS011;53704;52.532;6.426;2023-05-10T03:58:13;37.50;;;22.75;;
63005;SDS011;53704;52.532;6.426;2023-05-10T04:00:39;41.45;;;23.00;;
63005;SDS011;53704;52.532;6.426;2023-05-10T04:03:08;42.88;;;21.55;;
63005;SDS011;53704;52.532;6.426;2023-05-10T04:05:34;38.70;;;20.70;;
63005;SDS011;53704;52.532;6.426;2023-05-10T04:08:00;46.80;;;22.90;;
63005;SDS011;53704;52.532;6.426;2023-05-10T04:10:25;42.40;;;21.88;;
63005;SDS011;53704;52.532;6.426;2023-05-10T04:12:51;39.25;;;22.42;;
63005;SDS011;53704;52.532;6.426;2023-05-10T04:15:16;41.85;;;23.83;;
63005;SDS011;53704;52.532;6.426;2023-05-10T04:17:41;50.10;;;22.50;;
63005;SDS011;53704;52.532;6.426;2023-05-10T04:20:07;48.65;;;22.85;;
63005;SDS011;53704;52.532;6.426;2023-05-10T04:22:33;39.80;;;22.42;;
63005;SDS011;53704;52.532;6.426;2023-05-10T04:24:58;38.63;;;22.90;;
63005;SDS011;53704;52.532;6.426;2023-05-10T04:27:24;42.40;;;23.90;;
63005;SDS011;53704;52.532;6.426;2023-05-10T04:29:49;47.45;;;23.42;;
63005;SDS011;53704;52.532;6.426;2023-05-10T04:32:15;51.75;;;24.15;;
63005;SDS011;53704;52.532;6.426;2023-05-10T04:34:42;46.60;;;22.90;;
63005;SDS011;53704;52.532;6.426;2023-05-10T04:37:08;39.63;;;23.73;;
63005;SDS011;53704;52.532;6.426;2023-05-10T04:39:33;46.63;;;23.42;;
63005;SDS011;53704;52.532;6.426;2023-05-10T04:42:00;43.97;;;24.50;;
63005;SDS011;53704;52.532;6.426;2023-05-10T04:44:25;38.92;;;22.95;;
63005;SDS011;53704;52.532;6.426;2023-05-10T04:46:51;47.30;;;24.40;;
63005;SDS011;53704;52.532;6.426;2023-05-10T04:49:16;45.30;;;22.45;;
63005;SDS011;53704;52.532;6.426;2023-05-10T04:51:42;44.28;;;22.48;;
63005;SDS011;53704;52.532;6.426;2023-05-10T04:54:08;44.05;;;22.42;;
63005;SDS011;53704;52.532;6.426;2023-05-10T04:56:33;41.45;;;22.27;;
63005;SDS011;53704;52.532;6.426;2023-05-10T04:58:59;40.03;;;20.70;;
63005;SDS011;53704;52.532;6.426;2023-05-10T05:01:24;37.50;;;21.00;;
63005;SDS011;53704;52.532;6.426;2023-05-10T05:03:50;42.40;;;20.02;;
63005;SDS011;53704;52.532;6.426;2023-05-10T05:06:17;39.65;;;19.98;;
63005;SDS011;53704;52.532;6.426;2023-05-10T05:08:43;38.97;;;19.48;;
63005;SDS011;53704;52.532;6.426;2023-05-10T05:11:09;49.20;;;18.90;;
63005;SDS011;53704;52.532;6.426;2023-05-10T05:13:34;37.45;;;18.98;;
63005;SDS011;53704;52.532;6.426;2023-05-10T05:16:00;32.17;;;17.65;;
63005;SDS011;53704;52.532;6.426;2023-05-10T05:18:27;35.15;;;17.20;;
63005;SDS011;53704;52.532;6.426;2023-05-10T05:20:53;34.58;;;17.77;;
63005;SDS011;53704;52.532;6.426;2023-05-10T05:23:19;25.25;;;16.00;;
63005;SDS011;53704;52.532;6.426;2023-05-10T05:25:45;34.17;;;16.67;;
63005;SDS011;53704;52.532;6.426;2023-05-10T05:28:11;23.27;;;14.95;;
63005;SDS011;53704;52.532;6.426;2023-05-10T05:30:37;24.60;;;15.05;;
63005;SDS011;53704;52.532;6.426;2023-05-10T05:33:03;30.50;;;14.48;;
63005;SDS011;53704;52.532;6.426;2023-05-10T05:35:28;29.02;;;13.98;;
63005;SDS011;53704;52.532;6.426;2023-05-10T05:37:54;23.83;;;13.95;;
63005;SDS011;53704;52.532;6.426;2023-05-10T05:40:20;28.33;;;14.57;;
63005;SDS011;53704;52.532;6.426;2023-05-10T05:42:46;20.58;;;13.60;;
63005;SDS011;53704;52.532;6.426;2023-05-10T05:45:11;23.98;;;13.18;;
63005;SDS011;53704;52.532;6.426;2023-05-10T05:47:38;23.63;;;11.98;;
63005;SDS011;53704;52.532;6.426;2023-05-10T05:50:05;28.27;;;13.57;;
63005;SDS011;53704;52.532;6.426;2023-05-10T05:52:31;23.08;;;13.45;;
63005;SDS011;53704;52.532;6.426;2023-05-10T05:54:56;21.00;;;13.27;;
63005;SDS011;53704;52.532;6.426;2023-05-10T05:57:22;26.25;;;11.52;;
63005;SDS011;53704;52.532;6.426;2023-05-10T05:59:47;19.83;;;12.07;;
63005;SDS011;53704;52.532;6.426;2023-05-10T06:02:13;26.85;;;12.02;;
63005;SDS011;53704;52.532;6.426;2023-05-10T06:04:38;22.35;;;12.18;;
63005;SDS011;53704;52.532;6.426;2023-05-10T06:07:04;15.95;;;11.43;;
63005;SDS011;53704;52.532;6.426;2023-05-10T06:09:29;20.75;;;13.25;;
63005;SDS011;53704;52.532;6.426;2023-05-10T06:11:55;23.65;;;13.50;;
63005;SDS011;53704;52.532;6.426;2023-05-10T06:14:20;22.25;;;12.77;;
63005;SDS011;53704;52.532;6.426;2023-05-10T06:16:46;18.08;;;12.35;;
63005;SDS011;53704;52.532;6.426;2023-05-10T06:19:11;25.45;;;12.60;;
63005;SDS011;53704;52.532;6.426;2023-05-10T06:21:40;19.70;;;12.95;;
63005;SDS011;53704;52.532;6.426;2023-05-10T06:24:05;21.20;;;12.80;;
63005;SDS011;53704;52.532;6.426;2023-05-10T06:26:31;19.38;;;12.75;;
63005;SDS011;53704;52.532;6.426;2023-05-10T06:28:57;20.80;;;12.73;;
63005;SDS011;53704;52.532;6.426;2023-05-10T06:31:22;28.27;;;14.02;;
63005;SDS011;53704;52.532;6.426;2023-05-10T06:33:48;22.00;;;13.95;;
63005;SDS011;53704;52.532;6.426;2023-05-10T06:36:13;21.88;;;15.07;;
63005;SDS011;53704;52.532;6.426;2023-05-10T06:38:39;22.13;;;14.10;;
63005;SDS011;53704;52.532;6.426;2023-05-10T06:41:04;19.48;;;15.68;;
63005;SDS011;53704;52.532;6.426;2023-05-10T06:43:30;24.17;;;15.38;;
63005;SDS011;53704;52.532;6.426;2023-05-10T06:45:56;25.27;;;14.38;;
63005;SDS011;53704;52.532;6.426;2023-05-10T06:48:21;24.27;;;15.85;;
63005;SDS011;53704;52.532;6.426;2023-05-10T06:50:47;23.38;;;17.05;;
63005;SDS011;53704;52.532;6.426;2023-05-10T06:53:12;26.02;;;16.42;;
63005;SDS011;53704;52.532;6.426;2023-05-10T06:55:38;25.75;;;16.60;;
63005;SDS011;53704;52.532;6.426;2023-05-10T06:58:04;30.08;;;17.00;;
63005;SDS011;53704;52.532;6.426;2023-05-10T07:00:30;31.00;;;15.95;;
63005;SDS011;53704;52.532;6.426;2023-05-10T07:02:55;28.85;;;15.30;;
63005;SDS011;53704;52.532;6.426;2023-05-10T07:05:21;28.30;;;15.32;;
63005;SDS011;53704;52.532;6.426;2023-05-10T07:07:46;30.23;;;16.67;;
63005;SDS011;53704;52.532;6.426;2023-05-10T07:10:12;24.58;;;16.02;;
63005;SDS011;53704;52.532;6.426;2023-05-10T07:12:38;32.65;;;16.05;;
63005;SDS011;53704;52.532;6.426;2023-05-10T07:15:04;25.15;;;16.35;;
63005;SDS011;53704;52.532;6.426;2023-05-10T07:17:30;25.63;;;17.30;;
63005;SDS011;53704;52.532;6.426;2023-05-10T07:19:55;37.17;;;17.20;;
63005;SDS011;53704;52.532;6.426;2023-05-10T07:22:21;31.77;;;17.23;;
63005;SDS011;53704;52.532;6.426;2023-05-10T07:24:46;25.45;;;16.45;;
63005;SDS011;53704;52.532;6.426;2023-05-10T07:27:11;29.65;;;16.77;;
63005;SDS011;53704;52.532;6.426;2023-05-10T07:29:38;25.23;;;17.00;;
63005;SDS011;53704;52.532;6.426;2023-05-10T07:32:04;30.80;;;16.20;;
63005;SDS011;53704;52.532;6.426;2023-05-10T07:34:30;27.67;;;16.02;;
63005;SDS011;53704;52.532;6.426;2023-05-10T07:36:59;30.60;;;16.33;;
63005;SDS011;53704;52.532;6.426;2023-05-10T07:39:29;29.10;;;16.42;;
63005;SDS011;53704;52.532;6.426;2023-05-10T07:41:54;28.00;;;15.70;;
63005;SDS011;53704;52.532;6.426;2023-05-10T07:44:20;23.13;;;16.23;;
63005;SDS011;53704;52.532;6.426;2023-05-10T07:46:46;24.77;;;15.23;;
63005;SDS011;53704;52.532;6.426;2023-05-10T07:49:12;34.83;;;15.15;;
63005;SDS011;53704;52.532;6.426;2023-05-10T07:51:38;21.27;;;14.73;;
63005;SDS011;53704;52.532;6.426;2023-05-10T07:54:03;29.10;;;14.30;;
63005;SDS011;53704;52.532;6.426;2023-05-10T07:56:29;24.77;;;14.70;;
63005;SDS011;53704;52.532;6.426;2023-05-10T07:58:57;30.73;;;14.90;;
63005;SDS011;53704;52.532;6.426;2023-05-10T08:01:29;29.13;;;14.43;;
63005;SDS011;53704;52.532;6.426;2023-05-10T08:03:56;22.75;;;14.18;;
63005;SDS011;53704;52.532;6.426;2023-05-10T08:06:21;19.20;;;13.02;;
63005;SDS011;53704;52.532;6.426;2023-05-10T08:08:47;21.83;;;14.10;;
63005;SDS011;53704;52.532;6.426;2023-05-10T08:11:16;20.45;;;13.40;;
63005;SDS011;53704;52.532;6.426;2023-05-10T08:13:42;21.85;;;12.55;;
63005;SDS011;53704;52.532;6.426;2023-05-10T08:16:08;13.75;;;10.93;;
63005;SDS011;53704;52.532;6.426;2023-05-10T08:18:33;13.68;;;11.32;;
63005;SDS011;53704;52.532;6.426;2023-05-10T08:20:59;12.98;;;10.13;;
63005;SDS011;53704;52.532;6.426;2023-05-10T08:23:24;18.67;;;10.55;;
63005;SDS011;53704;52.532;6.426;2023-05-10T08:25:50;20.92;;;9.80;;
63005;SDS011;53704;52.532;6.426;2023-05-10T08:28:15;17.35;;;9.18;;
63005;SDS011;53704;52.532;6.426;2023-05-10T08:30:40;14.52;;;9.15;;
63005;SDS011;53704;52.532;6.426;2023-05-10T08:33:06;15.10;;;9.68;;
63005;SDS011;53704;52.532;6.426;2023-05-10T08:35:31;11.88;;;8.63;;
63005;SDS011;53704;52.532;6.426;2023-05-10T08:37:58;9.68;;;7.53;;
63005;SDS011;53704;52.532;6.426;2023-05-10T08:40:23;22.30;;;8.30;;
63005;SDS011;53704;52.532;6.426;2023-05-10T08:42:51;12.82;;;9.00;;
63005;SDS011;53704;52.532;6.426;2023-05-10T08:45:23;19.15;;;8.73;;
63005;SDS011;53704;52.532;6.426;2023-05-10T08:47:51;14.55;;;8.68;;
63005;SDS011;53704;52.532;6.426;2023-05-10T08:50:17;15.27;;;8.23;;
63005;SDS011;53704;52.532;6.426;2023-05-10T08:52:45;13.68;;;7.55;;
63005;SDS011;53704;52.532;6.426;2023-05-10T08:55:13;7.45;;;6.80;;
63005;SDS011;53704;52.532;6.426;2023-05-10T08:57:40;6.72;;;6.15;;
63005;SDS011;53704;52.532;6.426;2023-05-10T09:00:05;7.35;;;6.72;;
63005;SDS011;53704;52.532;6.426;2023-05-10T09:02:33;7.00;;;6.35;;
63005;SDS011;53704;52.532;6.426;2023-05-10T09:04:59;7.25;;;5.88;;
63005;SDS011;53704;52.532;6.426;2023-05-10T09:07:25;7.20;;;6.45;;
63005;SDS011;53704;52.532;6.426;2023-05-10T09:09:51;9.30;;;6.75;;
63005;SDS011;53704;52.532;6.426;2023-05-10T09:12:17;8.57;;;7.20;;
63005;SDS011;53704;52.532;6.426;2023-05-10T09:14:43;10.55;;;6.93;;
63005;SDS011;53704;52.532;6.426;2023-05-10T09:17:09;7.35;;;6.72;;
63005;SDS011;53704;52.532;6.426;2023-05-10T09:19:35;7.28;;;6.60;;
63005;SDS011;53704;52.532;6.426;2023-05-10T09:22:01;8.30;;;7.22;;
63005;SDS011;53704;52.532;6.426;2023-05-10T09:24:28;7.90;;;7.30;;
63005;SDS011;53704;52.532;6.426;2023-05-10T09:26:56;7.88;;;7.07;;
63005;SDS011;53704;52.532;6.426;2023-05-10T09:29:23;10.63;;;6.82;;
63005;SDS011;53704;52.532;6.426;2023-05-10T09:31:52;6.40;;;5.75;;
63005;SDS011;53704;52.532;6.426;2023-05-10T09:34:20;6.63;;;5.35;;
63005;SDS011;53704;52.532;6.426;2023-05-10T09:36:55;6.38;;;5.65;;
63005;SDS011;53704;52.532;6.426;2023-05-10T09:39:34;7.10;;;6.38;;
63005;SDS011;53704;52.532;6.426;2023-05-10T09:42:07;5.47;;;5.18;;
63005;SDS011;53704;52.532;6.426;2023-05-10T09:44:34;6.30;;;5.75;;
63005;SDS011;53704;52.532;6.426;2023-05-10T09:47:00;8.05;;;6.20;;
63005;SDS011;53704;52.532;6.426;2023-05-10T09:49:27;13.05;;;6.55;;
63005;SDS011;53704;52.532;6.426;2023-05-10T09:52:06;8.85;;;5.45;;
63005;SDS011;53704;52.532;6.426;2023-05-10T09:54:33;11.60;;;5.00;;
63005;SDS011;53704;52.532;6.426;2023-05-10T09:56:59;5.53;;;4.68;;
63005;SDS011;53704;52.532;6.426;2023-05-10T09:59:26;6.57;;;5.30;;
63005;SDS011;53704;52.532;6.426;2023-05-10T10:01:55;10.38;;;5.35;;
63005;SDS011;53704;52.532;6.426;2023-05-10T10:04:22;9.30;;;5.63;;
63005;SDS011;53704;52.532;6.426;2023-05-10T10:06:57;7.13;;;5.15;;
63005;SDS011;53704;52.532;6.426;2023-05-10T10:09:27;8.75;;;5.55;;
63005;SDS011;53704;52.532;6.426;2023-05-10T10:11:53;10.00;;;6.30;;
63005;SDS011;53704;52.532;6.426;2023-05-10T10:14:19;7.03;;;6.35;;
63005;SDS011;53704;52.532;6.426;2023-05-10T10:16:46;6.15;;;5.60;;
63005;SDS011;53704;52.532;6.426;2023-05-10T10:19:12;8.20;;;6.05;;
63005;SDS011;53704;52.532;6.426;2023-05-10T10:21:38;7.45;;;6.88;;
63005;SDS011;53704;52.532;6.426;2023-05-10T10:24:03;10.60;;;7.53;;
63005;SDS011;53704;52.532;6.426;2023-05-10T10:26:30;8.85;;;7.80;;
63005;SDS011;53704;52.532;6.426;2023-05-10T10:29:20;11.10;;;8.55;;
63005;SDS011;53704;52.532;6.426;2023-05-10T10:32:10;8.02;;;7.30;;
63005;SDS011;53704;52.532;6.426;2023-05-10T10:34:45;8.10;;;7.30;;
63005;SDS011;53704;52.532;6.426;2023-05-10T10:37:10;8.88;;;8.02;;
63005;SDS011;53704;52.532;6.426;2023-05-10T10:39:36;14.20;;;7.90;;
63005;SDS011;53704;52.532;6.426;2023-05-10T10:42:03;8.80;;;7.90;;
63005;SDS011;53704;52.532;6.426;2023-05-10T10:52:27;12.85;;;7.80;;
63005;SDS011;53704;52.532;6.426;2023-05-10T11:02:54;9.73;;;7.57;;
63005;SDS011;53704;52.532;6.426;2023-05-10T11:05:25;12.57;;;9.32;;
63005;SDS011;53704;52.532;6.426;2023-05-10T11:07:59;9.05;;;8.25;;
63005;SDS011;53704;52.532;6.426;2023-05-10T11:10:31;9.52;;;8.57;;
63005;SDS011;53704;52.532;6.426;2023-05-10T11:13:03;16.20;;;8.93;;
63005;SDS011;53704;52.532;6.426;2023-05-10T11:18:19;12.25;;;8.80;;
63005;SDS011;53704;52.532;6.426;2023-05-10T11:21:08;9.40;;;8.07;;
63005;SDS011;53704;52.532;6.426;2023-05-10T11:26:13;8.82;;;7.93;;
63005;SDS011;53704;52.532;6.426;2023-05-10T11:28:42;10.45;;;7.68;;
63005;SDS011;53704;52.532;6.426;2023-05-10T11:31:17;7.95;;;7.30;;
63005;SDS011;53704;52.532;6.426;2023-05-10T11:33:48;11.85;;;7.85;;
63005;SDS011;53704;52.532;6.426;2023-05-10T11:36:15;9.93;;;8.00;;
63005;SDS011;53704;52.532;6.426;2023-05-10T11:38:43;10.13;;;8.05;;
63005;SDS011;53704;52.532;6.426;2023-05-10T11:41:09;13.63;;;8.60;;
63005;SDS011;53704;52.532;6.426;2023-05-10T11:43:36;14.48;;;7.80;;
63005;SDS011;53704;52.532;6.426;2023-05-10T11:46:03;15.30;;;8.07;;
63005;SDS011;53704;52.532;6.426;2023-05-10T11:48:30;7.47;;;6.80;;
63005;SDS011;53704;52.532;6.426;2023-05-10T11:50:56;14.20;;;7.65;;
63005;SDS011;53704;52.532;6.426;2023-05-10T11:53:22;11.75;;;7.47;;
63005;SDS011;53704;52.532;6.426;2023-05-10T11:55:50;8.27;;;6.78;;
63005;SDS011;53704;52.532;6.426;2023-05-10T11:58:16;7.88;;;7.15;;
63005;SDS011;53704;52.532;6.426;2023-05-10T12:00:43;8.43;;;7.57;;
63005;SDS011;53704;52.532;6.426;2023-05-10T12:03:09;12.85;;;8.40;;
63005;SDS011;53704;52.532;6.426;2023-05-10T12:05:35;10.68;;;8.18;;
63005;SDS011;53704;52.532;6.426;2023-05-10T12:08:10;11.13;;;7.25;;
63005;SDS011;53704;52.532;6.426;2023-05-10T12:10:40;9.02;;;8.10;;
63005;SDS011;53704;52.532;6.426;2023-05-10T12:13:10;8.13;;;7.35;;
63005;SDS011;53704;52.532;6.426;2023-05-10T12:15:38;8.85;;;7.25;;
63005;SDS011;53704;52.532;6.426;2023-05-10T12:18:03;8.38;;;7.65;;
63005;SDS011;53704;52.532;6.426;2023-05-10T12:20:30;12.93;;;8.68;;
63005;SDS011;53704;52.532;6.426;2023-05-10T12:22:56;9.25;;;8.02;;
63005;SDS011;53704;52.532;6.426;2023-05-10T12:25:24;12.57;;;8.30;;
63005;SDS011;53704;52.532;6.426;2023-05-10T12:27:55;9.23;;;6.90;;
63005;SDS011;53704;52.532;6.426;2023-05-10T12:32:48;8.90;;;7.07;;
63005;SDS011;53704;52.532;6.426;2023-05-10T12:35:14;10.63;;;7.13;;
63005;SDS011;53704;52.532;6.426;2023-05-10T12:37:42;9.07;;;8.23;;
63005;SDS011;53704;52.532;6.426;2023-05-10T12:40:08;9.15;;;7.68;;
63005;SDS011;53704;52.532;6.426;2023-05-10T12:42:36;10.68;;;7.72;;
63005;SDS011;53704;52.532;6.426;2023-05-10T12:45:03;9.35;;;7.13;;
63005;SDS011;53704;52.532;6.426;2023-05-10T12:47:30;8.93;;;7.88;;
63005;SDS011;53704;52.532;6.426;2023-05-10T12:49:57;9.40;;;7.97;;
63005;SDS011;53704;52.532;6.426;2023-05-10T12:52:23;11.48;;;8.07;;
63005;SDS011;53704;52.532;6.426;2023-05-10T12:54:49;8.70;;;7.68;;
63005;SDS011;53704;52.532;6.426;2023-05-10T12:57:15;11.60;;;7.03;;
63005;SDS011;53704;52.532;6.426;2023-05-10T12:59:40;10.45;;;8.82;;
63005;SDS011;53704;52.532;6.426;2023-05-10T13:02:06;11.23;;;8.80;;
63005;SDS011;53704;52.532;6.426;2023-05-10T13:04:32;15.60;;;8.48;;
63005;SDS011;53704;52.532;6.426;2023-05-10T13:06:57;10.13;;;9.07;;
63005;SDS011;53704;52.532;6.426;2023-05-10T13:09:26;12.88;;;8.60;;
63005;SDS011;53704;52.532;6.426;2023-05-10T13:11:54;14.05;;;8.75;;
63005;SDS011;53704;52.532;6.426;2023-05-10T13:14:19;10.50;;;9.35;;
63005;SDS011;53704;52.532;6.426;2023-05-10T13:16:45;11.15;;;8.70;;
63005;SDS011;53704;52.532;6.426;2023-05-10T13:19:12;14.35;;;8.85;;
63005;SDS011;53704;52.532;6.426;2023-05-10T13:21:38;13.70;;;7.80;;
63005;SDS011;53704;52.532;6.426;2023-05-10T13:24:03;9.52;;;8.68;;
63005;SDS011;53704;52.532;6.426;2023-05-10T13:26:29;9.32;;;7.85;;
63005;SDS011;53704;52.532;6.426;2023-05-10T13:28:54;7.43;;;5.32;;
63005;SDS011;53704;52.532;6.426;2023-05-10T13:31:20;8.27;;;5.55;;
63005;SDS011;53704;52.532;6.426;2023-05-10T13:33:46;9.55;;;6.03;;
63005;SDS011;53704;52.532;6.426;2023-05-10T13:36:11;6.63;;;5.97;;
63005;SDS011;53704;52.532;6.426;2023-05-10T13:38:37;7.68;;;7.07;;
63005;SDS011;53704;52.532;6.426;2023-05-10T13:41:02;12.10;;;7.72;;
63005;SDS011;53704;52.532;6.426;2023-05-10T13:43:28;9.55;;;7.00;;
63005;SDS011;53704;52.532;6.426;2023-05-10T13:45:54;10.68;;;7.18;;
63005;SDS011;53704;52.532;6.426;2023-05-10T13:48:20;10.75;;;7.90;;
63005;SDS011;53704;52.532;6.426;2023-05-10T13:50:48;11.82;;;7.15;;
63005;SDS011;53704;52.532;6.426;2023-05-10T13:53:14;11.07;;;7.45;;
63005;SDS011;53704;52.532;6.426;2023-05-10T13:55:40;12.05;;;9.80;;
63005;SDS011;53704;52.532;6.426;2023-05-10T13:58:05;21.45;;;12.15;;
63005;SDS011;53704;52.532;6.426;2023-05-10T14:00:31;9.10;;;8.13;;
63005;SDS011;53704;52.532;6.426;2023-05-10T14:02:56;20.15;;;9.60;;
63005;SDS011;53704;52.532;6.426;2023-05-10T14:05:22;23.00;;;10.32;;
63005;SDS011;53704;52.532;6.426;2023-05-10T14:07:48;11.32;;;8.48;;
63005;SDS011;53704;52.532;6.426;2023-05-10T14:10:15;13.13;;;7.75;;
63005;SDS011;53704;52.532;6.426;2023-05-10T14:12:40;19.10;;;9.15;;
63005;SDS011;53704;52.532;6.426;2023-05-10T14:15:06;12.98;;;9.80;;
63005;SDS011;53704;52.532;6.426;2023-05-10T14:17:32;12.98;;;9.38;;
63005;SDS011;53704;52.532;6.426;2023-05-10T14:19:58;9.13;;;8.50;;
63005;SDS011;53704;52.532;6.426;2023-05-10T14:22:23;12.38;;;8.27;;
63005;SDS011;53704;52.532;6.426;2023-05-10T14:24:49;11.25;;;8.68;;
63005;SDS011;53704;52.532;6.426;2023-05-10T14:27:15;9.60;;;8.70;;
63005;SDS011;53704;52.532;6.426;2023-05-10T14:29:40;9.05;;;8.45;;
63005;SDS011;53704;52.532;6.426;2023-05-10T14:32:06;6.82;;;6.22;;
63005;SDS011;53704;52.532;6.426;2023-05-10T14:34:31;12.98;;;5.55;;
63005;SDS011;53704;52.532;6.426;2023-05-10T14:36:57;9.93;;;6.28;;
63005;SDS011;53704;52.532;6.426;2023-05-10T14:39:23;6.57;;;5.80;;
63005;SDS011;53704;52.532;6.426;2023-05-10T14:41:48;8.52;;;6.88;;
63005;SDS011;53704;52.532;6.426;2023-05-10T14:44:14;6.55;;;5.65;;
63005;SDS011;53704;52.532;6.426;2023-05-10T14:46:40;15.45;;;8.57;;
63005;SDS011;53704;52.532;6.426;2023-05-10T14:49:07;14.00;;;8.20;;
63005;SDS011;53704;52.532;6.426;2023-05-10T14:51:32;8.65;;;7.13;;
63005;SDS011;53704;52.532;6.426;2023-05-10T14:53:58;11.75;;;7.15;;
63005;SDS011;53704;52.532;6.426;2023-05-10T14:56:23;8.48;;;7.65;;
63005;SDS011;53704;52.532;6.426;2023-05-10T14:58:49;11.15;;;8.52;;
63005;SDS011;53704;52.532;6.426;2023-05-10T15:01:14;10.95;;;7.72;;
63005;SDS011;53704;52.532;6.426;2023-05-10T15:03:40;9.48;;;8.18;;
63005;SDS011;53704;52.532;6.426;2023-05-10T15:06:05;11.85;;;8.23;;
63005;SDS011;53704;52.532;6.426;2023-05-10T15:08:31;35.92;;;13.75;;
63005;SDS011;53704;52.532;6.426;2023-05-10T15:10:56;48.40;;;15.45;;
63005;SDS011;53704;52.532;6.426;2023-05-10T15:13:22;15.02;;;8.55;;
63005;SDS011;53704;52.532;6.426;2023-05-10T15:15:47;12.52;;;7.35;;